Patricia Ann — WDE2845 — position and weather

sailwx.info

Track history (hours):
 
Tides and Currents Weather Stations Pressure Air Temp Water Temp Dewpoint Dewpoint Depression Visibility Wind Speed Wind Dir Waves Ship Positions

Patricia Ann

Owner: AmNav Maritime Services, Oakland, CA. More information available from US FCC via Universal Licensing System and Coast Guard Vessel Documentation Center.

Last reported at 2016-Jul-24 06:33 UTC. Time now 2016-Jul-24 06:47 UTC.
Position N 37°49' W 122°19'.

Length 24 m; draft 4.9 m.

Type: Tug. MMSI: 367330510.

Date/timePositionNaut miles runAvg speedWind from/ knotsBaromVisibWave heightAir tempDewpointWater temp
2016-Jul-24 06:33N 37°49' W 122°19'0 0.0
2016-Jul-24 05:33N 37°49' W 122°19'0 0.0
2016-Jul-24 04:33N 37°49' W 122°19'0 0.0
2016-Jul-24 03:33N 37°49' W 122°19'1 1.0
2016-Jul-24 02:33N 37°49' W 122°20'1 0.7
2016-Jul-24 01:34N 37°48' W 122°20'2 2.3
2016-Jul-24 00:34N 37°48' W 122°18'2 1.8
2016-Jul-23 23:33N 37°48' W 122°20'2 1.6
2016-Jul-23 22:33N 37°49' W 122°19'0 0.0
2016-Jul-23 21:33N 37°49' W 122°19'0 0.0
2016-Jul-23 20:33N 37°49' W 122°19'0 0.0
2016-Jul-23 19:33N 37°49' W 122°19'0 0.0
2016-Jul-23 18:33N 37°49' W 122°19'0 0.0
2016-Jul-23 17:33N 37°49' W 122°19'0 0.0
2016-Jul-23 16:33N 37°49' W 122°19'0 0.0
2016-Jul-23 15:33N 37°49' W 122°19'2 1.6
2016-Jul-23 14:34N 37°48' W 122°19'0 0.3
2016-Jul-23 13:34N 37°48' W 122°19'1 1.5
2016-Jul-23 12:33N 37°48' W 122°21'0 0.0
2016-Jul-23 11:33N 37°48' W 122°21'0 0.0
2016-Jul-23 10:33N 37°48' W 122°21'0 0.0
2016-Jul-23 09:33N 37°48' W 122°21'0 0.2
2016-Jul-23 08:34N 37°48' W 122°20'1 0.8
2016-Jul-23 07:33N 37°48' W 122°21'2 2.4
2016-Jul-23 06:33N 37°49' W 122°19'0 0.0
2016-Jul-23 04:33N 37°49' W 122°19'0 0.0
2016-Jul-23 03:33N 37°49' W 122°19'0 0.0
2016-Jul-23 02:33N 37°49' W 122°19'0 0.0
2016-Jul-23 01:33N 37°49' W 122°19'0 0.4
2016-Jul-23 00:33N 37°49' W 122°19'6 6.4
2016-Jul-22 23:34N 37°54' W 122°23'0 0.2
2016-Jul-22 22:33N 37°54' W 122°23'0 0.0
2016-Jul-22 21:33N 37°54' W 122°23'0 0.0
2016-Jul-22 20:33N 37°54' W 122°23'0 0.0
2016-Jul-22 19:33N 37°54' W 122°23'0 0.2
2016-Jul-22 18:33N 37°54' W 122°23'0 0.5
2016-Jul-22 17:33N 37°54' W 122°22'1 0.7
2016-Jul-22 16:33N 37°54' W 122°23'0 0.0
2016-Jul-22 15:33N 37°54' W 122°23'0 0.0
2016-Jul-22 14:33N 37°54' W 122°23'0 0.0
2016-Jul-22 13:33N 37°54' W 122°23'0 0.0
2016-Jul-22 12:33N 37°54' W 122°23'0 0.0
2016-Jul-22 11:33N 37°54' W 122°23'0 0.0
2016-Jul-22 10:33N 37°54' W 122°23'0 0.0
2016-Jul-22 09:33N 37°54' W 122°23'1 1.1
2016-Jul-22 08:34N 37°54' W 122°22'1 0.9
2016-Jul-22 07:33N 37°55' W 122°22'6 3.1
2016-Jul-22 05:33N 37°49' W 122°19'0 0.0
2016-Jul-22 04:33N 37°49' W 122°19'0 0.0
2016-Jul-22 03:33N 37°49' W 122°19'0 0.0
2016-Jul-22 02:33N 37°49' W 122°19'0 0.0
2016-Jul-22 01:33N 37°49' W 122°19'0 0.0
2016-Jul-22 00:33N 37°49' W 122°19'2 1.6
2016-Jul-21 23:33N 37°48' W 122°20'1 1.1
2016-Jul-21 22:34N 37°48' W 122°19'0 0.4
2016-Jul-21 21:33N 37°48' W 122°19'0 0.5
2016-Jul-21 20:33N 37°48' W 122°18'1 0.8
2016-Jul-21 19:33N 37°48' W 122°19'0 0.0
2016-Jul-21 18:33N 37°48' W 122°19'0 0.0
2016-Jul-21 17:33N 37°48' W 122°19'1 0.5
2016-Jul-21 16:33N 37°48' W 122°19'0 0.1
2016-Jul-21 15:33N 37°48' W 122°19'2 1.6
2016-Jul-21 14:33N 37°48' W 122°21'2 1.7
2016-Jul-21 13:33N 37°49' W 122°19'0 0.0
2016-Jul-21 12:33N 37°49' W 122°19'0 0.0
2016-Jul-21 11:34N 37°49' W 122°19'0 0.0
2016-Jul-21 10:33N 37°49' W 122°19'0 0.0
2016-Jul-21 09:33N 37°49' W 122°19'0 0.0
2016-Jul-21 08:33N 37°49' W 122°19'0 0.0
2016-Jul-21 07:33N 37°49' W 122°19'0 0.0
2016-Jul-21 06:33N 37°49' W 122°19'0 0.0
2016-Jul-21 05:33N 37°49' W 122°19'0 0.0
2016-Jul-21 04:33N 37°49' W 122°19'0 0.0
2016-Jul-21 03:33N 37°49' W 122°19'2 1.7
2016-Jul-21 02:33N 37°48' W 122°18'1 0.5
2016-Jul-21 01:34N 37°48' W 122°19'0 0.2
2016-Jul-21 00:33N 37°48' W 122°19'2 1.6
2016-Jul-20 23:33N 37°48' W 122°21'1 1.1
2016-Jul-20 22:33N 37°48' W 122°19'0 0.1
2016-Jul-20 21:33N 37°48' W 122°19'1 1.0
2016-Jul-20 20:33N 37°48' W 122°21'1 1.2
2016-Jul-20 19:33N 37°48' W 122°19'2 1.6
2016-Jul-20 18:33N 37°49' W 122°19'0 0.0
2016-Jul-20 17:33N 37°49' W 122°19'0 0.0
2016-Jul-20 16:33N 37°49' W 122°19'0 0.0
2016-Jul-20 15:33N 37°49' W 122°19'0 0.0
2016-Jul-20 14:33N 37°49' W 122°19'0 0.0
2016-Jul-20 13:33N 37°49' W 122°19'2 1.7
2016-Jul-20 12:33N 37°48' W 122°18'0 0.2
2016-Jul-20 11:34N 37°48' W 122°19'2 1.7
2016-Jul-20 10:33N 37°49' W 122°19'0 0.0
2016-Jul-20 09:34N 37°49' W 122°19'0 0.0
2016-Jul-20 08:33N 37°49' W 122°19'0 0.0
2016-Jul-20 07:33N 37°49' W 122°19'0 0.0
2016-Jul-20 06:34N 37°49' W 122°19'0 0.0
2016-Jul-20 05:33N 37°49' W 122°19'0 0.0
2016-Jul-20 04:33N 37°49' W 122°19'0 0.0
2016-Jul-20 03:33N 37°49' W 122°19'2 1.6
2016-Jul-20 02:33N 37°48' W 122°19'0 0.3
2016-Jul-20 01:33N 37°48' W 122°19'0 0.0
2016-Jul-20 00:33N 37°48' W 122°19'0 0.0
2016-Jul-19 23:33N 37°48' W 122°19'1 0.7
2016-Jul-19 22:33N 37°48' W 122°19'1 0.6
2016-Jul-19 21:34N 37°48' W 122°19'1 0.2
2016-Jul-19 13:31N 37°48' W 122°21'1 1.2
2016-Jul-19 12:33N 37°48' W 122°19'0 0.1
2016-Jul-19 11:33N 37°48' W 122°19'1 1.2
2016-Jul-19 10:33N 37°48' W 122°18'1 0.1
2016-Jul-18 23:33N 37°48' W 122°19'1 0.7
2016-Jul-18 22:34N 37°48' W 122°18'0 0.1
2016-Jul-18 21:34N 37°48' W 122°18'1 1.3
2016-Jul-18 20:32N 37°48' W 122°20'2 0.2
2016-Jul-18 12:32N 37°48' W 122°22'3 3.4
2016-Jul-18 11:34N 37°48' W 122°18'2 1.6
2016-Jul-18 10:34N 37°48' W 122°20'1 0.2
2016-Jul-18 07:04N 37°48' W 122°20'0 0.0
2016-Jul-18 06:33N 37°48' W 122°20'0 0.0
2016-Jul-18 05:29N 37°48' W 122°20'13 6.8
2016-Jul-18 03:31N 37°36' W 122°16'6 4.9
2016-Jul-18 02:22N 37°31' W 122°13'0 0.1
2016-Jul-18 01:33N 37°31' W 122°13'16 8.0
2016-Jul-17 23:33N 37°45' W 122°21'3 0.3
2016-Jul-17 12:25N 37°48' W 122°21'3 0.3
2016-Jul-17 01:33N 37°48' W 122°18'1 1.4
2016-Jul-17 00:33N 37°48' W 122°20'1 0.1
2016-Jul-16 13:09N 37°48' W 122°21'0 0.5
2016-Jul-16 12:27N 37°48' W 122°21'1 0.1
2016-Jul-16 01:19N 37°48' W 122°20'1 1.6
2016-Jul-16 00:33N 37°48' W 122°19'0 0.4
2016-Jul-15 23:33N 37°48' W 122°19'0 0.0
2016-Jul-15 22:33N 37°48' W 122°19'0 0.0
2016-Jul-15 21:33N 37°48' W 122°19'0 0.0
2016-Jul-15 20:33N 37°48' W 122°19'0 0.0
2016-Jul-15 19:33N 37°48' W 122°19'1 1.0
2016-Jul-15 18:34N 37°48' W 122°18'0 0.3
2016-Jul-15 17:33N 37°48' W 122°18'0 0.0
2016-Jul-15 16:33N 37°48' W 122°18'0 0.0
2016-Jul-15 15:33N 37°48' W 122°18'0 0.0
2016-Jul-15 14:33N 37°48' W 122°18'1 0.9
2016-Jul-15 13:33N 37°48' W 122°19'2 2.2
2016-Jul-15 12:33N 37°48' W 122°22'2 2.4
2016-Jul-15 11:33N 37°48' W 122°19'0 0.0
2016-Jul-15 10:33N 37°48' W 122°19'0 0.0
2016-Jul-15 09:33N 37°48' W 122°19'0 0.0
2016-Jul-15 08:33N 37°48' W 122°19'0 0.0
2016-Jul-15 07:33N 37°48' W 122°19'0 0.0
2016-Jul-15 06:32N 37°48' W 122°19'0 0.0
2016-Jul-15 05:25N 37°48' W 122°19'0 0.0
2016-Jul-15 04:33N 37°48' W 122°19'0 0.0
2016-Jul-15 03:33N 37°48' W 122°19'0 0.0
2016-Jul-15 02:29N 37°48' W 122°19'0 0.2
2016-Jul-15 01:33N 37°48' W 122°19'1 1.1
2016-Jul-15 00:16N 37°48' W 122°21'1 0.5
2016-Jul-14 22:08N 37°48' W 122°22'3 0.4
2016-Jul-14 14:33N 37°49' W 122°19'0 0.0
2016-Jul-14 13:31N 37°49' W 122°19'0 0.0
2016-Jul-14 12:33N 37°49' W 122°19'0 0.0
2016-Jul-14 11:33N 37°49' W 122°19'2 1.7
2016-Jul-14 10:33N 37°48' W 122°20'1 1.1
2016-Jul-14 09:33N 37°48' W 122°19'2 1.6
2016-Jul-14 08:33N 37°49' W 122°19'0 0.0
2016-Jul-14 07:33N 37°49' W 122°19'  
Track history (hours):
 
Tides and Currents Weather Stations Pressure Air Temp Water Temp Dewpoint Dewpoint Depression Visibility Wind Speed Wind Dir Waves Ship Positions

Patricia Ann

Owner: AmNav Maritime Services, Oakland, CA. More information available from US FCC via Universal Licensing System and Coast Guard Vessel Documentation Center.

Last reported at 2016-Jul-24 06:33 UTC. Time now 2016-Jul-24 06:47 UTC.
Position N 37°49' W 122°19'.

Length 24 m; draft 4.9 m.

Type: Tug. MMSI: 367330510.

Date/timePositionNaut miles runAvg speedWind from/ knotsBaromVisibWave heightAir tempDewpointWater temp
2016-Jul-24 06:33N 37°49' W 122°19'0 0.0
2016-Jul-24 05:33N 37°49' W 122°19'0 0.0
2016-Jul-24 04:33N 37°49' W 122°19'0 0.0
2016-Jul-24 03:33N 37°49' W 122°19'1 1.0
2016-Jul-24 02:33N 37°49' W 122°20'1 0.7
2016-Jul-24 01:34N 37°48' W 122°20'2 2.3
2016-Jul-24 00:34N 37°48' W 122°18'2 1.8
2016-Jul-23 23:33N 37°48' W 122°20'2 1.6
2016-Jul-23 22:33N 37°49' W 122°19'0 0.0
2016-Jul-23 21:33N 37°49' W 122°19'0 0.0
2016-Jul-23 20:33N 37°49' W 122°19'0 0.0
2016-Jul-23 19:33N 37°49' W 122°19'0 0.0
2016-Jul-23 18:33N 37°49' W 122°19'0 0.0
2016-Jul-23 17:33N 37°49' W 122°19'0 0.0
2016-Jul-23 16:33N 37°49' W 122°19'0 0.0
2016-Jul-23 15:33N 37°49' W 122°19'2 1.6
2016-Jul-23 14:34N 37°48' W 122°19'0 0.3
2016-Jul-23 13:34N 37°48' W 122°19'1 1.5
2016-Jul-23 12:33N 37°48' W 122°21'0 0.0
2016-Jul-23 11:33N 37°48' W 122°21'0 0.0
2016-Jul-23 10:33N 37°48' W 122°21'0 0.0
2016-Jul-23 09:33N 37°48' W 122°21'0 0.2
2016-Jul-23 08:34N 37°48' W 122°20'1 0.8
2016-Jul-23 07:33N 37°48' W 122°21'2 2.4
2016-Jul-23 06:33N 37°49' W 122°19'0 0.0
2016-Jul-23 04:33N 37°49' W 122°19'0 0.0
2016-Jul-23 03:33N 37°49' W 122°19'0 0.0
2016-Jul-23 02:33N 37°49' W 122°19'0 0.0
2016-Jul-23 01:33N 37°49' W 122°19'0 0.4
2016-Jul-23 00:33N 37°49' W 122°19'6 6.4
2016-Jul-22 23:34N 37°54' W 122°23'0 0.2
2016-Jul-22 22:33N 37°54' W 122°23'0 0.0
2016-Jul-22 21:33N 37°54' W 122°23'0 0.0
2016-Jul-22 20:33N 37°54' W 122°23'0 0.0
2016-Jul-22 19:33N 37°54' W 122°23'0 0.2
2016-Jul-22 18:33N 37°54' W 122°23'0 0.5
2016-Jul-22 17:33N 37°54' W 122°22'1 0.7
2016-Jul-22 16:33N 37°54' W 122°23'0 0.0
2016-Jul-22 15:33N 37°54' W 122°23'0 0.0
2016-Jul-22 14:33N 37°54' W 122°23'0 0.0
2016-Jul-22 13:33N 37°54' W 122°23'0 0.0
2016-Jul-22 12:33N 37°54' W 122°23'0 0.0
2016-Jul-22 11:33N 37°54' W 122°23'0 0.0
2016-Jul-22 10:33N 37°54' W 122°23'0 0.0
2016-Jul-22 09:33N 37°54' W 122°23'1 1.1
2016-Jul-22 08:34N 37°54' W 122°22'1 0.9
2016-Jul-22 07:33N 37°55' W 122°22'6 3.1
2016-Jul-22 05:33N 37°49' W 122°19'0 0.0
2016-Jul-22 04:33N 37°49' W 122°19'0 0.0
2016-Jul-22 03:33N 37°49' W 122°19'0 0.0
2016-Jul-22 02:33N 37°49' W 122°19'0 0.0
2016-Jul-22 01:33N 37°49' W 122°19'0 0.0
2016-Jul-22 00:33N 37°49' W 122°19'2 1.6
2016-Jul-21 23:33N 37°48' W 122°20'1 1.1
2016-Jul-21 22:34N 37°48' W 122°19'0 0.4
2016-Jul-21 21:33N 37°48' W 122°19'0 0.5
2016-Jul-21 20:33N 37°48' W 122°18'1 0.8
2016-Jul-21 19:33N 37°48' W 122°19'0 0.0
2016-Jul-21 18:33N 37°48' W 122°19'0 0.0
2016-Jul-21 17:33N 37°48' W 122°19'1 0.5
2016-Jul-21 16:33N 37°48' W 122°19'0 0.1
2016-Jul-21 15:33N 37°48' W 122°19'2 1.6
2016-Jul-21 14:33N 37°48' W 122°21'2 1.7
2016-Jul-21 13:33N 37°49' W 122°19'0 0.0
2016-Jul-21 12:33N 37°49' W 122°19'0 0.0
2016-Jul-21 11:34N 37°49' W 122°19'0 0.0
2016-Jul-21 10:33N 37°49' W 122°19'0 0.0
2016-Jul-21 09:33N 37°49' W 122°19'0 0.0
2016-Jul-21 08:33N 37°49' W 122°19'0 0.0
2016-Jul-21 07:33N 37°49' W 122°19'0 0.0
2016-Jul-21 06:33N 37°49' W 122°19'0 0.0
2016-Jul-21 05:33N 37°49' W 122°19'0 0.0
2016-Jul-21 04:33N 37°49' W 122°19'0 0.0
2016-Jul-21 03:33N 37°49' W 122°19'2 1.7
2016-Jul-21 02:33N 37°48' W 122°18'1 0.5
2016-Jul-21 01:34N 37°48' W 122°19'0 0.2
2016-Jul-21 00:33N 37°48' W 122°19'2 1.6
2016-Jul-20 23:33N 37°48' W 122°21'1 1.1
2016-Jul-20 22:33N 37°48' W 122°19'0 0.1
2016-Jul-20 21:33N 37°48' W 122°19'1 1.0
2016-Jul-20 20:33N 37°48' W 122°21'1 1.2
2016-Jul-20 19:33N 37°48' W 122°19'2 1.6
2016-Jul-20 18:33N 37°49' W 122°19'0 0.0
2016-Jul-20 17:33N 37°49' W 122°19'0 0.0
2016-Jul-20 16:33N 37°49' W 122°19'0 0.0
2016-Jul-20 15:33N 37°49' W 122°19'0 0.0
2016-Jul-20 14:33N 37°49' W 122°19'0 0.0
2016-Jul-20 13:33N 37°49' W 122°19'2 1.7
2016-Jul-20 12:33N 37°48' W 122°18'0 0.2
2016-Jul-20 11:34N 37°48' W 122°19'2 1.7
2016-Jul-20 10:33N 37°49' W 122°19'0 0.0
2016-Jul-20 09:34N 37°49' W 122°19'0 0.0
2016-Jul-20 08:33N 37°49' W 122°19'0 0.0
2016-Jul-20 07:33N 37°49' W 122°19'0 0.0
2016-Jul-20 06:34N 37°49' W 122°19'0 0.0
2016-Jul-20 05:33N 37°49' W 122°19'0 0.0
2016-Jul-20 04:33N 37°49' W 122°19'0 0.0
2016-Jul-20 03:33N 37°49' W 122°19'2 1.6
2016-Jul-20 02:33N 37°48' W 122°19'0 0.3
2016-Jul-20 01:33N 37°48' W 122°19'0 0.0
2016-Jul-20 00:33N 37°48' W 122°19'0 0.0
2016-Jul-19 23:33N 37°48' W 122°19'1 0.7
2016-Jul-19 22:33N 37°48' W 122°19'1 0.6
2016-Jul-19 21:34N 37°48' W 122°19'1 0.2
2016-Jul-19 13:31N 37°48' W 122°21'1 1.2
2016-Jul-19 12:33N 37°48' W 122°19'0 0.1
2016-Jul-19 11:33N 37°48' W 122°19'1 1.2
2016-Jul-19 10:33N 37°48' W 122°18'1 0.1
2016-Jul-18 23:33N 37°48' W 122°19'1 0.7
2016-Jul-18 22:34N 37°48' W 122°18'0 0.1
2016-Jul-18 21:34N 37°48' W 122°18'1 1.3
2016-Jul-18 20:32N 37°48' W 122°20'2 0.2
2016-Jul-18 12:32N 37°48' W 122°22'3 3.4
2016-Jul-18 11:34N 37°48' W 122°18'2 1.6
2016-Jul-18 10:34N 37°48' W 122°20'1 0.2
2016-Jul-18 07:04N 37°48' W 122°20'0 0.0
2016-Jul-18 06:33N 37°48' W 122°20'0 0.0
2016-Jul-18 05:29N 37°48' W 122°20'13 6.8
2016-Jul-18 03:31N 37°36' W 122°16'6 4.9
2016-Jul-18 02:22N 37°31' W 122°13'0 0.1
2016-Jul-18 01:33N 37°31' W 122°13'16 8.0
2016-Jul-17 23:33N 37°45' W 122°21'3 0.3
2016-Jul-17 12:25N 37°48' W 122°21'3 0.3
2016-Jul-17 01:33N 37°48' W 122°18'1 1.4
2016-Jul-17 00:33N 37°48' W 122°20'1 0.1
2016-Jul-16 13:09N 37°48' W 122°21'0 0.5
2016-Jul-16 12:27N 37°48' W 122°21'1 0.1
2016-Jul-16 01:19N 37°48' W 122°20'1 1.6
2016-Jul-16 00:33N 37°48' W 122°19'0 0.4
2016-Jul-15 23:33N 37°48' W 122°19'0 0.0
2016-Jul-15 22:33N 37°48' W 122°19'0 0.0
2016-Jul-15 21:33N 37°48' W 122°19'0 0.0
2016-Jul-15 20:33N 37°48' W 122°19'0 0.0
2016-Jul-15 19:33N 37°48' W 122°19'1 1.0
2016-Jul-15 18:34N 37°48' W 122°18'0 0.3
2016-Jul-15 17:33N 37°48' W 122°18'0 0.0
2016-Jul-15 16:33N 37°48' W 122°18'0 0.0
2016-Jul-15 15:33N 37°48' W 122°18'0 0.0
2016-Jul-15 14:33N 37°48' W 122°18'1 0.9
2016-Jul-15 13:33N 37°48' W 122°19'2 2.2
2016-Jul-15 12:33N 37°48' W 122°22'2 2.4
2016-Jul-15 11:33N 37°48' W 122°19'0 0.0
2016-Jul-15 10:33N 37°48' W 122°19'0 0.0
2016-Jul-15 09:33N 37°48' W 122°19'0 0.0
2016-Jul-15 08:33N 37°48' W 122°19'0 0.0
2016-Jul-15 07:33N 37°48' W 122°19'0 0.0
2016-Jul-15 06:32N 37°48' W 122°19'0 0.0
2016-Jul-15 05:25N 37°48' W 122°19'0 0.0
2016-Jul-15 04:33N 37°48' W 122°19'0 0.0
2016-Jul-15 03:33N 37°48' W 122°19'0 0.0
2016-Jul-15 02:29N 37°48' W 122°19'0 0.2
2016-Jul-15 01:33N 37°48' W 122°19'1 1.1
2016-Jul-15 00:16N 37°48' W 122°21'1 0.5
2016-Jul-14 22:08N 37°48' W 122°22'3 0.4
2016-Jul-14 14:33N 37°49' W 122°19'0 0.0
2016-Jul-14 13:31N 37°49' W 122°19'0 0.0
2016-Jul-14 12:33N 37°49' W 122°19'0 0.0
2016-Jul-14 11:33N 37°49' W 122°19'2 1.7
2016-Jul-14 10:33N 37°48' W 122°20'1 1.1
2016-Jul-14 09:33N 37°48' W 122°19'2 1.6
2016-Jul-14 08:33N 37°49' W 122°19'0 0.0
2016-Jul-14 07:33N 37°49' W 122°19'  

Dump ship's entire track history